sensor_id;sensor_type;location;lat;lon;timestamp;P1;durP1;ratioP1;P2;durP2;ratioP2
6269;SDS011;3168;51.684;6.954;2023-03-12T00:02:25;2.10;;;2.00;;
6269;SDS011;3168;51.684;6.954;2023-03-12T00:04:51;1.87;;;1.73;;
6269;SDS011;3168;51.684;6.954;2023-03-12T00:07:17;7.50;;;2.27;;
6269;SDS011;3168;51.684;6.954;2023-03-12T00:09:42;1.57;;;1.57;;
6269;SDS011;3168;51.684;6.954;2023-03-12T00:12:08;2.17;;;2.07;;
6269;SDS011;3168;51.684;6.954;2023-03-12T00:14:34;1.93;;;1.83;;
6269;SDS011;3168;51.684;6.954;2023-03-12T00:17:00;2.53;;;2.43;;
6269;SDS011;3168;51.684;6.954;2023-03-12T00:19:26;2.30;;;2.30;;
6269;SDS011;3168;51.684;6.954;2023-03-12T00:21:52;4.00;;;3.87;;
6269;SDS011;3168;51.684;6.954;2023-03-12T00:24:17;3.07;;;2.77;;
6269;SDS011;3168;51.684;6.954;2023-03-12T00:26:43;1.93;;;1.87;;
6269;SDS011;3168;51.684;6.954;2023-03-12T00:29:09;3.00;;;2.90;;
6269;SDS011;3168;51.684;6.954;2023-03-12T00:31:35;3.07;;;2.87;;
6269;SDS011;3168;51.684;6.954;2023-03-12T00:34:01;3.60;;;3.43;;
6269;SDS011;3168;51.684;6.954;2023-03-12T00:36:28;2.23;;;2.13;;
6269;SDS011;3168;51.684;6.954;2023-03-12T00:38:53;2.43;;;2.23;;
6269;SDS011;3168;51.684;6.954;2023-03-12T00:41:18;2.20;;;2.10;;
6269;SDS011;3168;51.684;6.954;2023-03-12T00:43:45;2.20;;;2.20;;
6269;SDS011;3168;51.684;6.954;2023-03-12T00:46:12;2.97;;;2.77;;
6269;SDS011;3168;51.684;6.954;2023-03-12T00:48:37;3.07;;;2.97;;
6269;SDS011;3168;51.684;6.954;2023-03-12T00:51:03;3.90;;;3.70;;
6269;SDS011;3168;51.684;6.954;2023-03-12T00:53:29;6.20;;;2.37;;
6269;SDS011;3168;51.684;6.954;2023-03-12T00:55:55;3.03;;;1.60;;
6269;SDS011;3168;51.684;6.954;2023-03-12T00:58:21;3.97;;;2.90;;
6269;SDS011;3168;51.684;6.954;2023-03-12T01:00:47;3.90;;;2.40;;
6269;SDS011;3168;51.684;6.954;2023-03-12T01:03:13;1.50;;;1.50;;
6269;SDS011;3168;51.684;6.954;2023-03-12T01:05:39;2.10;;;2.10;;
6269;SDS011;3168;51.684;6.954;2023-03-12T01:08:05;2.97;;;2.20;;
6269;SDS011;3168;51.684;6.954;2023-03-12T01:10:30;2.00;;;2.00;;
6269;SDS011;3168;51.684;6.954;2023-03-12T01:12:56;2.40;;;2.30;;
6269;SDS011;3168;51.684;6.954;2023-03-12T01:15:22;7.97;;;4.13;;
6269;SDS011;3168;51.684;6.954;2023-03-12T01:17:48;2.57;;;2.40;;
6269;SDS011;3168;51.684;6.954;2023-03-12T01:20:14;4.87;;;3.70;;
6269;SDS011;3168;51.684;6.954;2023-03-12T01:22:40;2.63;;;2.53;;
6269;SDS011;3168;51.684;6.954;2023-03-12T01:25:06;2.33;;;2.23;;
6269;SDS011;3168;51.684;6.954;2023-03-12T01:27:32;3.60;;;3.40;;
6269;SDS011;3168;51.684;6.954;2023-03-12T01:29:58;3.43;;;2.57;;
6269;SDS011;3168;51.684;6.954;2023-03-12T01:32:24;2.90;;;2.77;;
6269;SDS011;3168;51.684;6.954;2023-03-12T01:34:49;2.83;;;2.70;;
6269;SDS011;3168;51.684;6.954;2023-03-12T01:37:15;3.00;;;2.67;;
6269;SDS011;3168;51.684;6.954;2023-03-12T01:39:42;4.30;;;2.53;;
6269;SDS011;3168;51.684;6.954;2023-03-12T01:42:08;3.50;;;3.13;;
6269;SDS011;3168;51.684;6.954;2023-03-12T01:47:11;2.43;;;2.23;;
6269;SDS011;3168;51.684;6.954;2023-03-12T01:49:37;2.50;;;2.40;;
6269;SDS011;3168;51.684;6.954;2023-03-12T01:52:04;4.17;;;3.97;;
6269;SDS011;3168;51.684;6.954;2023-03-12T01:54:34;3.03;;;2.93;;
6269;SDS011;3168;51.684;6.954;2023-03-12T01:57:01;4.80;;;2.83;;
6269;SDS011;3168;51.684;6.954;2023-03-12T01:59:29;3.83;;;3.57;;
6269;SDS011;3168;51.684;6.954;2023-03-12T02:01:54;2.90;;;2.70;;
6269;SDS011;3168;51.684;6.954;2023-03-12T02:04:20;2.50;;;2.40;;
6269;SDS011;3168;51.684;6.954;2023-03-12T02:06:49;2.13;;;2.03;;
6269;SDS011;3168;51.684;6.954;2023-03-12T02:09:14;2.07;;;1.83;;
6269;SDS011;3168;51.684;6.954;2023-03-12T02:11:40;2.00;;;1.90;;
6269;SDS011;3168;51.684;6.954;2023-03-12T02:14:06;2.87;;;2.77;;
6269;SDS011;3168;51.684;6.954;2023-03-12T02:16:32;3.27;;;2.93;;
6269;SDS011;3168;51.684;6.954;2023-03-12T02:18:58;3.97;;;3.70;;
6269;SDS011;3168;51.684;6.954;2023-03-12T02:21:24;2.87;;;2.67;;
6269;SDS011;3168;51.684;6.954;2023-03-12T02:23:56;4.20;;;3.90;;
6269;SDS011;3168;51.684;6.954;2023-03-12T02:26:23;11.93;;;3.30;;
6269;SDS011;3168;51.684;6.954;2023-03-12T02:28:49;2.50;;;2.30;;
6269;SDS011;3168;51.684;6.954;2023-03-12T02:31:16;2.57;;;2.20;;
6269;SDS011;3168;51.684;6.954;2023-03-12T02:33:41;3.90;;;3.60;;
6269;SDS011;3168;51.684;6.954;2023-03-12T02:36:07;2.40;;;2.30;;
6269;SDS011;3168;51.684;6.954;2023-03-12T02:38:41;3.80;;;3.50;;
6269;SDS011;3168;51.684;6.954;2023-03-12T02:41:11;3.33;;;3.13;;
6269;SDS011;3168;51.684;6.954;2023-03-12T02:43:39;3.00;;;2.80;;
6269;SDS011;3168;51.684;6.954;2023-03-12T02:46:05;6.93;;;3.00;;
6269;SDS011;3168;51.684;6.954;2023-03-12T02:48:31;12.03;;;3.27;;
6269;SDS011;3168;51.684;6.954;2023-03-12T02:50:56;3.10;;;2.90;;
6269;SDS011;3168;51.684;6.954;2023-03-12T02:53:22;1.70;;;1.70;;
6269;SDS011;3168;51.684;6.954;2023-03-12T02:55:48;2.97;;;2.60;;
6269;SDS011;3168;51.684;6.954;2023-03-12T02:58:14;3.33;;;3.13;;
6269;SDS011;3168;51.684;6.954;2023-03-12T03:00:40;2.63;;;2.43;;
6269;SDS011;3168;51.684;6.954;2023-03-12T03:03:05;3.37;;;3.27;;
6269;SDS011;3168;51.684;6.954;2023-03-12T03:05:31;4.00;;;3.57;;
6269;SDS011;3168;51.684;6.954;2023-03-12T03:07:57;2.50;;;2.40;;
6269;SDS011;3168;51.684;6.954;2023-03-12T03:10:23;2.70;;;2.60;;
6269;SDS011;3168;51.684;6.954;2023-03-12T03:12:49;2.67;;;2.57;;
6269;SDS011;3168;51.684;6.954;2023-03-12T03:15:15;3.17;;;3.00;;
6269;SDS011;3168;51.684;6.954;2023-03-12T03:17:40;2.50;;;2.40;;
6269;SDS011;3168;51.684;6.954;2023-03-12T03:20:06;2.23;;;2.13;;
6269;SDS011;3168;51.684;6.954;2023-03-12T03:22:34;2.27;;;2.17;;
6269;SDS011;3168;51.684;6.954;2023-03-12T03:24:59;2.63;;;2.43;;
6269;SDS011;3168;51.684;6.954;2023-03-12T03:27:25;2.37;;;2.27;;
6269;SDS011;3168;51.684;6.954;2023-03-12T03:29:51;2.90;;;2.70;;
6269;SDS011;3168;51.684;6.954;2023-03-12T03:32:17;2.80;;;2.60;;
6269;SDS011;3168;51.684;6.954;2023-03-12T03:34:43;2.80;;;2.70;;
6269;SDS011;3168;51.684;6.954;2023-03-12T03:37:08;3.33;;;3.00;;
6269;SDS011;3168;51.684;6.954;2023-03-12T03:39:34;3.27;;;3.03;;
6269;SDS011;3168;51.684;6.954;2023-03-12T03:42:00;2.87;;;2.77;;
6269;SDS011;3168;51.684;6.954;2023-03-12T03:44:26;2.20;;;2.07;;
6269;SDS011;3168;51.684;6.954;2023-03-12T03:46:52;3.57;;;3.40;;
6269;SDS011;3168;51.684;6.954;2023-03-12T03:49:17;2.10;;;2.10;;
6269;SDS011;3168;51.684;6.954;2023-03-12T03:51:43;2.13;;;2.03;;
6269;SDS011;3168;51.684;6.954;2023-03-12T03:54:09;4.73;;;2.63;;
6269;SDS011;3168;51.684;6.954;2023-03-12T03:56:35;2.17;;;2.00;;
6269;SDS011;3168;51.684;6.954;2023-03-12T03:59:01;2.93;;;2.83;;
6269;SDS011;3168;51.684;6.954;2023-03-12T04:01:27;2.50;;;2.30;;
6269;SDS011;3168;51.684;6.954;2023-03-12T04:03:53;2.00;;;1.90;;
6269;SDS011;3168;51.684;6.954;2023-03-12T04:06:18;3.00;;;2.90;;
6269;SDS011;3168;51.684;6.954;2023-03-12T04:08:44;2.00;;;1.90;;
6269;SDS011;3168;51.684;6.954;2023-03-12T04:11:11;17.43;;;3.73;;
6269;SDS011;3168;51.684;6.954;2023-03-12T04:13:37;3.27;;;3.10;;
6269;SDS011;3168;51.684;6.954;2023-03-12T04:16:03;3.03;;;2.93;;
6269;SDS011;3168;51.684;6.954;2023-03-12T04:18:30;2.40;;;2.30;;
6269;SDS011;3168;51.684;6.954;2023-03-12T04:20:55;2.13;;;2.03;;
6269;SDS011;3168;51.684;6.954;2023-03-12T04:23:21;2.43;;;2.33;;
6269;SDS011;3168;51.684;6.954;2023-03-12T04:25:47;2.10;;;2.10;;
6269;SDS011;3168;51.684;6.954;2023-03-12T04:28:13;3.00;;;2.90;;
6269;SDS011;3168;51.684;6.954;2023-03-12T04:30:39;2.80;;;2.70;;
6269;SDS011;3168;51.684;6.954;2023-03-12T04:33:05;2.70;;;2.60;;
6269;SDS011;3168;51.684;6.954;2023-03-12T04:35:30;2.90;;;2.80;;
6269;SDS011;3168;51.684;6.954;2023-03-12T04:37:56;3.50;;;3.30;;
6269;SDS011;3168;51.684;6.954;2023-03-12T04:40:22;3.67;;;3.10;;
6269;SDS011;3168;51.684;6.954;2023-03-12T04:42:48;3.60;;;3.47;;
6269;SDS011;3168;51.684;6.954;2023-03-12T04:45:14;3.67;;;3.37;;
6269;SDS011;3168;51.684;6.954;2023-03-12T04:47:40;2.83;;;2.63;;
6269;SDS011;3168;51.684;6.954;2023-03-12T04:50:06;2.87;;;2.42;;
6269;SDS011;3168;51.684;6.954;2023-03-12T04:52:32;3.30;;;3.00;;
6269;SDS011;3168;51.684;6.954;2023-03-12T04:54:58;4.97;;;2.60;;
6269;SDS011;3168;51.684;6.954;2023-03-12T04:57:24;25.93;;;3.10;;
6269;SDS011;3168;51.684;6.954;2023-03-12T04:59:50;3.23;;;3.10;;
6269;SDS011;3168;51.684;6.954;2023-03-12T05:02:16;2.60;;;2.50;;
6269;SDS011;3168;51.684;6.954;2023-03-12T05:04:43;2.03;;;1.93;;
6269;SDS011;3168;51.684;6.954;2023-03-12T05:07:09;1.43;;;1.43;;
6269;SDS011;3168;51.684;6.954;2023-03-12T05:09:34;1.83;;;1.60;;
6269;SDS011;3168;51.684;6.954;2023-03-12T05:12:00;1.90;;;1.90;;
6269;SDS011;3168;51.684;6.954;2023-03-12T05:14:26;2.43;;;1.77;;
6269;SDS011;3168;51.684;6.954;2023-03-12T05:16:52;1.90;;;1.67;;
6269;SDS011;3168;51.684;6.954;2023-03-12T05:19:18;0.90;;;0.90;;
6269;SDS011;3168;51.684;6.954;2023-03-12T05:21:46;1.17;;;1.17;;
6269;SDS011;3168;51.684;6.954;2023-03-12T05:24:12;0.87;;;0.87;;
6269;SDS011;3168;51.684;6.954;2023-03-12T05:26:38;1.70;;;1.60;;
6269;SDS011;3168;51.684;6.954;2023-03-12T05:29:04;2.53;;;1.27;;
6269;SDS011;3168;51.684;6.954;2023-03-12T05:31:30;0.80;;;0.80;;
6269;SDS011;3168;51.684;6.954;2023-03-12T05:33:57;1.13;;;1.13;;
6269;SDS011;3168;51.684;6.954;2023-03-12T05:36:22;1.27;;;1.27;;
6269;SDS011;3168;51.684;6.954;2023-03-12T05:38:48;1.30;;;1.30;;
6269;SDS011;3168;51.684;6.954;2023-03-12T05:41:23;1.53;;;1.50;;
6269;SDS011;3168;51.684;6.954;2023-03-12T05:43:50;1.63;;;1.53;;
6269;SDS011;3168;51.684;6.954;2023-03-12T05:46:15;1.17;;;1.17;;
6269;SDS011;3168;51.684;6.954;2023-03-12T05:48:42;0.70;;;0.70;;
6269;SDS011;3168;51.684;6.954;2023-03-12T05:51:08;1.63;;;1.37;;
6269;SDS011;3168;51.684;6.954;2023-03-12T05:53:33;1.03;;;1.03;;
6269;SDS011;3168;51.684;6.954;2023-03-12T05:56:03;1.53;;;1.43;;
6269;SDS011;3168;51.684;6.954;2023-03-12T05:58:28;0.93;;;0.93;;
6269;SDS011;3168;51.684;6.954;2023-03-12T06:00:54;1.17;;;0.97;;
6269;SDS011;3168;51.684;6.954;2023-03-12T06:03:21;0.73;;;0.73;;
6269;SDS011;3168;51.684;6.954;2023-03-12T06:05:46;1.07;;;0.97;;
6269;SDS011;3168;51.684;6.954;2023-03-12T06:08:12;2.30;;;1.80;;
6269;SDS011;3168;51.684;6.954;2023-03-12T06:10:38;1.23;;;1.13;;
6269;SDS011;3168;51.684;6.954;2023-03-12T06:13:04;4.80;;;1.03;;
6269;SDS011;3168;51.684;6.954;2023-03-12T06:15:30;0.70;;;0.70;;
6269;SDS011;3168;51.684;6.954;2023-03-12T06:17:56;1.10;;;1.10;;
6269;SDS011;3168;51.684;6.954;2023-03-12T06:20:22;0.63;;;0.63;;
6269;SDS011;3168;51.684;6.954;2023-03-12T06:22:47;1.53;;;1.13;;
6269;SDS011;3168;51.684;6.954;2023-03-12T06:25:13;4.53;;;0.90;;
6269;SDS011;3168;51.684;6.954;2023-03-12T06:27:39;0.70;;;0.70;;
6269;SDS011;3168;51.684;6.954;2023-03-12T06:30:05;0.70;;;0.70;;
6269;SDS011;3168;51.684;6.954;2023-03-12T06:32:32;4.20;;;1.03;;
6269;SDS011;3168;51.684;6.954;2023-03-12T06:34:57;0.83;;;0.83;;
6269;SDS011;3168;51.684;6.954;2023-03-12T06:37:23;2.27;;;0.97;;
6269;SDS011;3168;51.684;6.954;2023-03-12T06:39:50;1.53;;;1.40;;
6269;SDS011;3168;51.684;6.954;2023-03-12T06:42:16;0.80;;;0.77;;
6269;SDS011;3168;51.684;6.954;2023-03-12T06:44:42;34.10;;;9.00;;
6269;SDS011;3168;51.684;6.954;2023-03-12T06:47:08;1.10;;;1.00;;
6269;SDS011;3168;51.684;6.954;2023-03-12T06:49:34;0.80;;;0.80;;
6269;SDS011;3168;51.684;6.954;2023-03-12T06:52:00;1.10;;;1.10;;
6269;SDS011;3168;51.684;6.954;2023-03-12T06:54:26;4.63;;;2.07;;
6269;SDS011;3168;51.684;6.954;2023-03-12T06:56:52;1.77;;;1.67;;
6269;SDS011;3168;51.684;6.954;2023-03-12T06:59:18;2.80;;;1.43;;
6269;SDS011;3168;51.684;6.954;2023-03-12T07:01:43;9.77;;;4.30;;
6269;SDS011;3168;51.684;6.954;2023-03-12T07:04:10;1.53;;;1.53;;
6269;SDS011;3168;51.684;6.954;2023-03-12T07:06:36;2.10;;;1.63;;
6269;SDS011;3168;51.684;6.954;2023-03-12T07:09:02;0.90;;;0.90;;
6269;SDS011;3168;51.684;6.954;2023-03-12T07:11:28;1.40;;;1.40;;
6269;SDS011;3168;51.684;6.954;2023-03-12T07:13:53;3.70;;;1.00;;
6269;SDS011;3168;51.684;6.954;2023-03-12T07:16:19;2.83;;;0.83;;
6269;SDS011;3168;51.684;6.954;2023-03-12T07:18:45;0.80;;;0.80;;
6269;SDS011;3168;51.684;6.954;2023-03-12T07:21:11;0.93;;;0.93;;
6269;SDS011;3168;51.684;6.954;2023-03-12T07:23:37;1.73;;;0.93;;
6269;SDS011;3168;51.684;6.954;2023-03-12T07:26:03;1.37;;;1.37;;
6269;SDS011;3168;51.684;6.954;2023-03-12T07:28:29;1.70;;;1.60;;
6269;SDS011;3168;51.684;6.954;2023-03-12T07:30:59;21.73;;;1.47;;
6269;SDS011;3168;51.684;6.954;2023-03-12T07:33:24;2.23;;;2.03;;
6269;SDS011;3168;51.684;6.954;2023-03-12T07:35:50;0.90;;;0.90;;
6269;SDS011;3168;51.684;6.954;2023-03-12T07:38:16;1.07;;;1.07;;
6269;SDS011;3168;51.684;6.954;2023-03-12T07:40:42;1.37;;;1.30;;
6269;SDS011;3168;51.684;6.954;2023-03-12T07:43:08;3.27;;;1.97;;
6269;SDS011;3168;51.684;6.954;2023-03-12T07:45:33;0.80;;;0.80;;
6269;SDS011;3168;51.684;6.954;2023-03-12T07:47:59;0.70;;;0.70;;
6269;SDS011;3168;51.684;6.954;2023-03-12T07:50:25;1.27;;;1.17;;
6269;SDS011;3168;51.684;6.954;2023-03-12T07:52:51;1.47;;;0.80;;
6269;SDS011;3168;51.684;6.954;2023-03-12T07:55:17;0.60;;;0.60;;
6269;SDS011;3168;51.684;6.954;2023-03-12T07:57:43;1.10;;;1.10;;
6269;SDS011;3168;51.684;6.954;2023-03-12T08:00:10;1.03;;;1.03;;
6269;SDS011;3168;51.684;6.954;2023-03-12T08:02:36;5.80;;;2.20;;
6269;SDS011;3168;51.684;6.954;2023-03-12T08:05:03;2.23;;;1.80;;
6269;SDS011;3168;51.684;6.954;2023-03-12T08:07:29;1.60;;;1.60;;
6269;SDS011;3168;51.684;6.954;2023-03-12T08:09:55;1.63;;;1.53;;
6269;SDS011;3168;51.684;6.954;2023-03-12T08:12:21;1.67;;;1.57;;
6269;SDS011;3168;51.684;6.954;2023-03-12T08:14:47;1.87;;;1.87;;
6269;SDS011;3168;51.684;6.954;2023-03-12T08:17:14;0.93;;;0.93;;
6269;SDS011;3168;51.684;6.954;2023-03-12T08:19:40;2.70;;;2.00;;
6269;SDS011;3168;51.684;6.954;2023-03-12T08:22:06;0.93;;;0.93;;
6269;SDS011;3168;51.684;6.954;2023-03-12T08:24:32;2.43;;;2.23;;
6269;SDS011;3168;51.684;6.954;2023-03-12T08:26:58;2.67;;;1.30;;
6269;SDS011;3168;51.684;6.954;2023-03-12T08:29:24;1.57;;;1.57;;
6269;SDS011;3168;51.684;6.954;2023-03-12T08:31:51;1.20;;;1.10;;
6269;SDS011;3168;51.684;6.954;2023-03-12T08:34:17;13.93;;;1.43;;
6269;SDS011;3168;51.684;6.954;2023-03-12T08:36:44;1.87;;;1.77;;
6269;SDS011;3168;51.684;6.954;2023-03-12T08:39:09;2.90;;;1.70;;
6269;SDS011;3168;51.684;6.954;2023-03-12T08:41:35;1.27;;;1.27;;
6269;SDS011;3168;51.684;6.954;2023-03-12T08:44:01;2.10;;;1.90;;
6269;SDS011;3168;51.684;6.954;2023-03-12T08:46:27;1.50;;;1.40;;
6269;SDS011;3168;51.684;6.954;2023-03-12T08:48:54;7.73;;;1.50;;
6269;SDS011;3168;51.684;6.954;2023-03-12T08:51:20;2.03;;;1.93;;
6269;SDS011;3168;51.684;6.954;2023-03-12T08:53:46;1.40;;;1.40;;
6269;SDS011;3168;51.684;6.954;2023-03-12T08:56:12;1.63;;;1.63;;
6269;SDS011;3168;51.684;6.954;2023-03-12T08:58:38;2.13;;;2.03;;
6269;SDS011;3168;51.684;6.954;2023-03-12T09:01:07;1.60;;;1.50;;
6269;SDS011;3168;51.684;6.954;2023-03-12T09:03:32;1.63;;;1.53;;
6269;SDS011;3168;51.684;6.954;2023-03-12T09:06:01;3.00;;;2.47;;
6269;SDS011;3168;51.684;6.954;2023-03-12T09:08:26;1.77;;;1.67;;
6269;SDS011;3168;51.684;6.954;2023-03-12T09:10:52;1.90;;;1.80;;
6269;SDS011;3168;51.684;6.954;2023-03-12T09:13:18;1.97;;;1.83;;
6269;SDS011;3168;51.684;6.954;2023-03-12T09:15:44;1.97;;;1.90;;
6269;SDS011;3168;51.684;6.954;2023-03-12T09:18:09;1.47;;;1.37;;
6269;SDS011;3168;51.684;6.954;2023-03-12T09:20:35;1.90;;;1.77;;
6269;SDS011;3168;51.684;6.954;2023-03-12T09:23:01;4.30;;;2.20;;
6269;SDS011;3168;51.684;6.954;2023-03-12T09:25:27;11.80;;;2.53;;
6269;SDS011;3168;51.684;6.954;2023-03-12T09:27:53;2.73;;;2.63;;
6269;SDS011;3168;51.684;6.954;2023-03-12T09:30:20;2.27;;;2.17;;
6269;SDS011;3168;51.684;6.954;2023-03-12T09:32:45;1.97;;;1.63;;
6269;SDS011;3168;51.684;6.954;2023-03-12T09:35:11;2.77;;;2.57;;
6269;SDS011;3168;51.684;6.954;2023-03-12T09:37:37;2.40;;;2.20;;
6269;SDS011;3168;51.684;6.954;2023-03-12T09:40:03;6.23;;;2.13;;
6269;SDS011;3168;51.684;6.954;2023-03-12T09:42:46;2.40;;;2.30;;
6269;SDS011;3168;51.684;6.954;2023-03-12T09:45:16;1.33;;;1.33;;
6269;SDS011;3168;51.684;6.954;2023-03-12T09:47:55;1.90;;;1.90;;
6269;SDS011;3168;51.684;6.954;2023-03-12T09:50:26;2.00;;;1.90;;
6269;SDS011;3168;51.684;6.954;2023-03-12T09:55:51;2.03;;;1.93;;
6269;SDS011;3168;51.684;6.954;2023-03-12T09:58:29;2.20;;;2.10;;
6269;SDS011;3168;51.684;6.954;2023-03-12T10:01:01;2.90;;;2.80;;
6269;SDS011;3168;51.684;6.954;2023-03-12T10:06:20;2.97;;;2.87;;
6269;SDS011;3168;51.684;6.954;2023-03-12T10:08:53;4.00;;;3.43;;
6269;SDS011;3168;51.684;6.954;2023-03-12T10:11:41;3.57;;;3.27;;
6269;SDS011;3168;51.684;6.954;2023-03-12T10:14:06;2.80;;;2.60;;
6269;SDS011;3168;51.684;6.954;2023-03-12T10:17:05;3.90;;;3.70;;
6269;SDS011;3168;51.684;6.954;2023-03-12T10:22:32;4.17;;;3.87;;
6269;SDS011;3168;51.684;6.954;2023-03-12T10:25:20;4.87;;;4.57;;
6269;SDS011;3168;51.684;6.954;2023-03-12T10:27:47;4.13;;;3.83;;
6269;SDS011;3168;51.684;6.954;2023-03-12T10:30:17;4.37;;;4.07;;
6269;SDS011;3168;51.684;6.954;2023-03-12T10:32:47;8.33;;;6.47;;
6269;SDS011;3168;51.684;6.954;2023-03-12T10:35:14;6.60;;;4.97;;
6269;SDS011;3168;51.684;6.954;2023-03-12T10:37:41;4.70;;;4.30;;
6269;SDS011;3168;51.684;6.954;2023-03-12T10:40:05;4.80;;;4.50;;
6269;SDS011;3168;51.684;6.954;2023-03-12T10:42:36;8.87;;;4.40;;
6269;SDS011;3168;51.684;6.954;2023-03-12T10:48:02;15.37;;;7.83;;
6269;SDS011;3168;51.684;6.954;2023-03-12T10:50:28;6.90;;;4.60;;
6269;SDS011;3168;51.684;6.954;2023-03-12T10:53:11;6.83;;;6.07;;
6269;SDS011;3168;51.684;6.954;2023-03-12T10:55:22;7.57;;;5.05;;
6269;SDS011;3168;51.684;6.954;2023-03-12T10:57:49;8.33;;;6.00;;
6269;SDS011;3168;51.684;6.954;2023-03-12T11:00:17;8.53;;;7.00;;
6269;SDS011;3168;51.684;6.954;2023-03-12T11:02:42;5.07;;;4.53;;
6269;SDS011;3168;51.684;6.954;2023-03-12T11:05:17;4.70;;;4.30;;
6269;SDS011;3168;51.684;6.954;2023-03-12T11:07:43;6.83;;;6.23;;
6269;SDS011;3168;51.684;6.954;2023-03-12T11:12:52;11.23;;;2.90;;
6269;SDS011;3168;51.684;6.954;2023-03-12T11:15:25;4.47;;;3.13;;
6269;SDS011;3168;51.684;6.954;2023-03-12T11:17:52;4.10;;;3.60;;
6269;SDS011;3168;51.684;6.954;2023-03-12T11:20:26;3.10;;;3.00;;
6269;SDS011;3168;51.684;6.954;2023-03-12T11:22:53;2.87;;;2.70;;
6269;SDS011;3168;51.684;6.954;2023-03-12T11:25:23;4.57;;;4.03;;
6269;SDS011;3168;51.684;6.954;2023-03-12T11:27:50;2.73;;;2.63;;
6269;SDS011;3168;51.684;6.954;2023-03-12T11:30:19;7.37;;;4.70;;
6269;SDS011;3168;51.684;6.954;2023-03-12T11:32:44;4.97;;;4.50;;
6269;SDS011;3168;51.684;6.954;2023-03-12T11:35:12;3.80;;;3.60;;
6269;SDS011;3168;51.684;6.954;2023-03-12T11:40:18;5.70;;;4.90;;
6269;SDS011;3168;51.684;6.954;2023-03-12T11:51:05;4.73;;;4.43;;
6269;SDS011;3168;51.684;6.954;2023-03-12T11:53:41;23.17;;;3.63;;
6269;SDS011;3168;51.684;6.954;2023-03-12T11:56:27;4.77;;;4.47;;
6269;SDS011;3168;51.684;6.954;2023-03-12T12:00:02;4.17;;;3.87;;
6269;SDS011;3168;51.684;6.954;2023-03-12T12:02:12;5.13;;;4.63;;
6269;SDS011;3168;51.684;6.954;2023-03-12T12:04:33;4.90;;;4.47;;
6269;SDS011;3168;51.684;6.954;2023-03-12T12:07:18;4.97;;;4.43;;
6269;SDS011;3168;51.684;6.954;2023-03-12T12:09:55;5.00;;;4.60;;
6269;SDS011;3168;51.684;6.954;2023-03-12T12:12:26;5.53;;;4.77;;
6269;SDS011;3168;51.684;6.954;2023-03-12T12:14:56;5.07;;;4.67;;
6269;SDS011;3168;51.684;6.954;2023-03-12T12:17:28;5.87;;;4.47;;
6269;SDS011;3168;51.684;6.954;2023-03-12T12:20:25;5.47;;;4.97;;
6269;SDS011;3168;51.684;6.954;2023-03-12T12:24:04;8.00;;;6.00;;
6269;SDS011;3168;51.684;6.954;2023-03-12T12:25:45;6.00;;;5.47;;
6269;SDS011;3168;51.684;6.954;2023-03-12T12:28:30;5.73;;;5.27;;
6269;SDS011;3168;51.684;6.954;2023-03-12T12:34:03;9.47;;;5.00;;
6269;SDS011;3168;51.684;6.954;2023-03-12T12:36:44;10.23;;;7.03;;
6269;SDS011;3168;51.684;6.954;2023-03-12T12:39:10;7.97;;;6.97;;
6269;SDS011;3168;51.684;6.954;2023-03-12T12:41:38;10.33;;;6.90;;
6269;SDS011;3168;51.684;6.954;2023-03-12T12:44:04;5.30;;;4.90;;
6269;SDS011;3168;51.684;6.954;2023-03-12T12:46:32;5.80;;;5.37;;
6269;SDS011;3168;51.684;6.954;2023-03-12T12:48:59;7.83;;;7.00;;
6269;SDS011;3168;51.684;6.954;2023-03-12T12:51:28;9.70;;;7.30;;
6269;SDS011;3168;51.684;6.954;2023-03-12T12:54:01;9.40;;;7.60;;
6269;SDS011;3168;51.684;6.954;2023-03-12T12:56:38;5.67;;;5.17;;
6269;SDS011;3168;51.684;6.954;2023-03-12T12:59:18;6.77;;;6.17;;
6269;SDS011;3168;51.684;6.954;2023-03-12T13:01:48;7.77;;;5.70;;
6269;SDS011;3168;51.684;6.954;2023-03-12T13:04:16;7.13;;;6.43;;
6269;SDS011;3168;51.684;6.954;2023-03-12T13:06:53;5.80;;;5.40;;
6269;SDS011;3168;51.684;6.954;2023-03-12T13:09:20;8.30;;;6.63;;
6269;SDS011;3168;51.684;6.954;2023-03-12T13:11:44;6.67;;;6.10;;
6269;SDS011;3168;51.684;6.954;2023-03-12T13:14:12;17.50;;;6.03;;
6269;SDS011;3168;51.684;6.954;2023-03-12T13:16:36;11.90;;;5.60;;
6269;SDS011;3168;51.684;6.954;2023-03-12T13:19:04;9.93;;;6.20;;
6269;SDS011;3168;51.684;6.954;2023-03-12T13:24:23;6.50;;;5.37;;
6269;SDS011;3168;51.684;6.954;2023-03-12T13:27:07;7.93;;;6.33;;
6269;SDS011;3168;51.684;6.954;2023-03-12T13:29:35;17.30;;;7.77;;
6269;SDS011;3168;51.684;6.954;2023-03-12T13:32:00;13.50;;;6.90;;
6269;SDS011;3168;51.684;6.954;2023-03-12T13:34:28;24.10;;;8.47;;
6269;SDS011;3168;51.684;6.954;2023-03-12T13:36:57;10.50;;;7.20;;
6269;SDS011;3168;51.684;6.954;2023-03-12T13:39:30;11.70;;;7.00;;
6269;SDS011;3168;51.684;6.954;2023-03-12T13:41:54;7.63;;;5.70;;
6269;SDS011;3168;51.684;6.954;2023-03-12T13:44:30;12.10;;;7.53;;
6269;SDS011;3168;51.684;6.954;2023-03-12T13:47:03;14.10;;;8.17;;
6269;SDS011;3168;51.684;6.954;2023-03-12T13:52:09;11.47;;;7.23;;
6269;SDS011;3168;51.684;6.954;2023-03-12T13:54:44;13.27;;;5.17;;
6269;SDS011;3168;51.684;6.954;2023-03-12T13:57:11;14.20;;;6.37;;
6269;SDS011;3168;51.684;6.954;2023-03-12T13:59:36;8.67;;;7.23;;
6269;SDS011;3168;51.684;6.954;2023-03-12T14:02:04;8.33;;;7.03;;
6269;SDS011;3168;51.684;6.954;2023-03-12T14:04:29;19.98;;;8.20;;
6269;SDS011;3168;51.684;6.954;2023-03-12T14:07:16;7.80;;;7.00;;
6269;SDS011;3168;51.684;6.954;2023-03-12T14:09:44;10.20;;;7.83;;
6269;SDS011;3168;51.684;6.954;2023-03-12T14:12:15;22.43;;;9.67;;
6269;SDS011;3168;51.684;6.954;2023-03-12T14:14:58;7.33;;;6.03;;
6269;SDS011;3168;51.684;6.954;2023-03-12T14:17:22;9.90;;;6.53;;
6269;SDS011;3168;51.684;6.954;2023-03-12T14:19:51;8.60;;;7.37;;
6269;SDS011;3168;51.684;6.954;2023-03-12T14:22:15;8.70;;;6.57;;
6269;SDS011;3168;51.684;6.954;2023-03-12T14:24:47;14.43;;;7.00;;
6269;SDS011;3168;51.684;6.954;2023-03-12T14:27:12;7.80;;;5.53;;
6269;SDS011;3168;51.684;6.954;2023-03-12T14:29:37;12.23;;;6.60;;
6269;SDS011;3168;51.684;6.954;2023-03-12T14:32:03;16.20;;;8.10;;
6269;SDS011;3168;51.684;6.954;2023-03-12T14:34:32;14.57;;;7.97;;
6269;SDS011;3168;51.684;6.954;2023-03-12T14:36:57;11.47;;;6.80;;
6269;SDS011;3168;51.684;6.954;2023-03-12T14:40:34;13.67;;;7.07;;
6269;SDS011;3168;51.684;6.954;2023-03-12T14:42:06;19.20;;;6.00;;
6269;SDS011;3168;51.684;6.954;2023-03-12T14:44:33;22.83;;;7.07;;
6269;SDS011;3168;51.684;6.954;2023-03-12T14:46:58;21.27;;;7.90;;
6269;SDS011;3168;51.684;6.954;2023-03-12T14:49:24;11.80;;;4.90;;
6269;SDS011;3168;51.684;6.954;2023-03-12T14:51:50;11.40;;;5.23;;
6269;SDS011;3168;51.684;6.954;2023-03-12T14:54:17;18.83;;;6.00;;
6269;SDS011;3168;51.684;6.954;2023-03-12T14:56:43;8.47;;;5.17;;
6269;SDS011;3168;51.684;6.954;2023-03-12T15:01:45;30.43;;;6.23;;
6269;SDS011;3168;51.684;6.954;2023-03-12T15:04:13;6.20;;;3.90;;
6269;SDS011;3168;51.684;6.954;2023-03-12T15:06:42;12.35;;;4.28;;
6269;SDS011;3168;51.684;6.954;2023-03-12T15:09:15;4.00;;;3.70;;
6269;SDS011;3168;51.684;6.954;2023-03-12T15:11:41;9.00;;;3.23;;
6269;SDS011;3168;51.684;6.954;2023-03-12T15:14:07;8.87;;;4.47;;
6269;SDS011;3168;51.684;6.954;2023-03-12T15:16:32;14.50;;;2.97;;
6269;SDS011;3168;51.684;6.954;2023-03-12T15:18:58;14.57;;;3.13;;
6269;SDS011;3168;51.684;6.954;2023-03-12T15:21:24;4.67;;;3.67;;
6269;SDS011;3168;51.684;6.954;2023-03-12T15:23:50;19.50;;;4.10;;
6269;SDS011;3168;51.684;6.954;2023-03-12T15:26:25;19.10;;;4.40;;
6269;SDS011;3168;51.684;6.954;2023-03-12T15:28:54;14.63;;;3.47;;
6269;SDS011;3168;51.684;6.954;2023-03-12T15:31:19;6.23;;;3.00;;
6269;SDS011;3168;51.684;6.954;2023-03-12T15:33:57;8.43;;;2.30;;
6269;SDS011;3168;51.684;6.954;2023-03-12T15:38:52;12.20;;;3.10;;
6269;SDS011;3168;51.684;6.954;2023-03-12T15:41:19;25.67;;;3.63;;
6269;SDS011;3168;51.684;6.954;2023-03-12T15:43:43;17.03;;;3.50;;
6269;SDS011;3168;51.684;6.954;2023-03-12T15:46:09;7.63;;;2.90;;
6269;SDS011;3168;51.684;6.954;2023-03-12T15:48:37;13.57;;;2.50;;
6269;SDS011;3168;51.684;6.954;2023-03-12T15:51:02;3.93;;;2.13;;
6269;SDS011;3168;51.684;6.954;2023-03-12T15:53:30;27.23;;;3.40;;
6269;SDS011;3168;51.684;6.954;2023-03-12T15:56:00;11.97;;;3.53;;
6269;SDS011;3168;51.684;6.954;2023-03-12T15:58:26;15.50;;;4.10;;